Time,TemperatureF,DewpointF,PressureIn,WindDirection,WindDirectionDegrees,WindSpeedMPH,WindSpeedGustMPH,Humidity,HourlyPrecipIn,Conditions,Clouds,dailyrainin,SolarRadiationWatts/m^2,SoftwareType,DateUTC
2013-05-14 00:03:00,34.0,30.0,-100.00,ESE,108,2.0,3.0,85,0.00,,,0.00,0.000000,,2013-05-14 04:03:00,
2013-05-14 00:10:00,36.0,32.0,-100.00,East,99,1.0,3.0,85,0.00,,,0.00,0.000000,,2013-05-14 04:10:00,
2013-05-14 00:33:00,36.0,32.0,-100.00,East,99,1.0,3.0,85,0.00,,,0.00,0.000000,,2013-05-14 04:33:00,
2013-05-14 00:43:00,36.0,32.0,-100.00,East,99,1.0,3.0,85,0.00,,,0.00,0.000000,,2013-05-14 04:43:00,
2013-05-14 00:53:00,36.0,32.0,-100.00,East,99,1.0,3.0,85,0.00,,,0.00,0.000000,,2013-05-14 04:53:00,
2013-05-14 01:02:00,36.0,32.0,-100.00,East,99,1.0,3.0,85,0.00,,,0.00,0.000000,,2013-05-14 05:02:00,
2013-05-14 01:10:00,33.0,29.0,-100.00,ESE,107,1.0,2.0,86,0.00,,,0.00,0.000000,,2013-05-14 05:10:00,
2013-05-14 01:32:00,33.0,29.0,-100.00,ESE,107,1.0,2.0,86,0.00,,,0.00,0.000000,,2013-05-14 05:32:00,
2013-05-14 01:42:00,33.0,29.0,-100.00,ESE,107,1.0,2.0,86,0.00,,,0.00,0.000000,,2013-05-14 05:42:00,
2013-05-14 01:52:00,33.0,29.0,-100.00,ESE,107,1.0,2.0,86,0.00,,,0.00,0.000000,,2013-05-14 05:52:00,
2013-05-14 02:01:00,33.0,29.0,-100.00,ESE,107,1.0,2.0,86,0.00,,,0.00,0.000000,,2013-05-14 06:01:00,
2013-05-14 02:10:00,30.0,28.0,-100.00,East,84,1.0,3.0,91,0.00,,,0.00,0.000000,,2013-05-14 06:10:00,
2013-05-14 02:32:00,30.0,28.0,-100.00,East,84,1.0,3.0,91,0.00,,,0.00,0.000000,,2013-05-14 06:32:00,
2013-05-14 02:42:00,30.0,28.0,-100.00,East,84,1.0,3.0,91,0.00,,,0.00,0.000000,,2013-05-14 06:42:00,
2013-05-14 02:52:00,30.0,28.0,-100.00,East,84,1.0,3.0,91,0.00,,,0.00,0.000000,,2013-05-14 06:52:00,
2013-05-14 03:02:00,30.0,28.0,-100.00,East,84,1.0,3.0,91,0.00,,,0.00,0.000000,,2013-05-14 07:02:00,
2013-05-14 03:10:00,29.0,27.0,-100.00,East,97,0.0,2.0,93,0.00,,,0.00,0.000000,,2013-05-14 07:10:00,
2013-05-14 03:42:00,29.0,27.0,-100.00,East,97,0.0,2.0,93,0.00,,,0.00,0.000000,,2013-05-14 07:42:00,
2013-05-14 03:52:00,29.0,27.0,-100.00,East,97,0.0,2.0,93,0.00,,,0.00,0.000000,,2013-05-14 07:52:00,
2013-05-14 04:02:00,29.0,27.0,-100.00,East,97,0.0,2.0,93,0.00,,,0.00,0.000000,,2013-05-14 08:02:00,
2013-05-14 04:10:00,28.0,27.0,-100.00,ESE,107,1.0,3.0,94,0.00,,,0.00,0.000000,,2013-05-14 08:10:00,
2013-05-14 04:42:00,28.0,27.0,-100.00,ESE,107,1.0,3.0,94,0.00,,,0.00,0.000000,,2013-05-14 08:42:00,
2013-05-14 04:52:00,28.0,27.0,-100.00,ESE,107,1.0,3.0,94,0.00,,,0.00,0.000000,,2013-05-14 08:52:00,
2013-05-14 05:02:00,28.0,27.0,-100.00,ESE,107,1.0,3.0,94,0.00,,,0.00,0.000000,,2013-05-14 09:02:00,
2013-05-14 05:10:00,28.0,27.0,-100.00,East,88,1.0,2.0,94,0.00,,,0.00,0.000000,,2013-05-14 09:10:00,
2013-05-14 05:33:00,28.0,27.0,-100.00,East,88,1.0,2.0,94,0.00,,,0.00,0.000000,,2013-05-14 09:33:00,
2013-05-14 05:44:00,28.0,27.0,-100.00,East,88,1.0,2.0,94,0.00,,,0.00,0.000000,,2013-05-14 09:44:00,
2013-05-14 05:54:00,28.0,27.0,-100.00,East,88,1.0,2.0,94,0.00,,,0.00,0.000000,,2013-05-14 09:54:00,
2013-05-14 06:05:00,28.0,27.0,-100.00,East,88,1.0,2.0,94,0.00,,,0.00,0.000000,,2013-05-14 10:05:00,
2013-05-14 06:10:00,30.0,29.0,-100.00,ENE,57,0.0,2.0,97,0.00,,,0.00,11.000000,,2013-05-14 10:10:00,
2013-05-14 06:33:00,30.0,29.0,-100.00,ENE,57,0.0,2.0,97,0.00,,,0.00,11.000000,,2013-05-14 10:33:00,
2013-05-14 06:42:00,30.0,29.0,-100.00,ENE,57,0.0,2.0,97,0.00,,,0.00,11.000000,,2013-05-14 10:42:00,
2013-05-14 06:53:00,30.0,29.0,-100.00,ENE,57,0.0,2.0,97,0.00,,,0.00,11.000000,,2013-05-14 10:53:00,
2013-05-14 07:03:00,30.0,29.0,-100.00,ENE,57,0.0,2.0,97,0.00,,,0.00,11.000000,,2013-05-14 11:03:00,
2013-05-14 07:10:00,33.0,32.0,-100.00,West,265,1.0,3.0,97,0.00,,,0.00,71.000000,,2013-05-14 11:10:00,
2013-05-14 07:32:00,33.0,32.0,-100.00,West,265,1.0,3.0,97,0.00,,,0.00,71.000000,,2013-05-14 11:32:00,
2013-05-14 07:43:00,33.0,32.0,-100.00,West,265,1.0,3.0,97,0.00,,,0.00,71.000000,,2013-05-14 11:43:00,
2013-05-14 07:53:00,33.0,32.0,-100.00,West,265,1.0,3.0,97,0.00,,,0.00,71.000000,,2013-05-14 11:53:00,
2013-05-14 08:03:00,33.0,32.0,-100.00,West,265,1.0,3.0,97,0.00,,,0.00,71.000000,,2013-05-14 12:03:00,
2013-05-14 08:42:00,43.0,38.0,-100.00,ESE,111,1.0,4.0,83,0.00,,,0.00,185.000000,,2013-05-14 12:42:00,
2013-05-14 08:52:00,43.0,38.0,-100.00,ESE,111,1.0,4.0,83,0.00,,,0.00,185.000000,,2013-05-14 12:52:00,
2013-05-14 09:10:00,47.0,31.0,-100.00,NW,318,3.0,7.0,53,0.00,,,0.00,292.000000,,2013-05-14 13:10:00,
2013-05-14 09:42:00,47.0,31.0,-100.00,NW,318,3.0,7.0,53,0.00,,,0.00,292.000000,,2013-05-14 13:42:00,
2013-05-14 09:52:00,47.0,31.0,-100.00,NW,318,3.0,7.0,53,0.00,,,0.00,292.000000,,2013-05-14 13:52:00,
2013-05-14 10:01:00,47.0,31.0,-100.00,NW,318,3.0,7.0,53,0.00,,,0.00,292.000000,,2013-05-14 14:01:00,
2013-05-14 10:10:00,50.0,27.0,-100.00,NE,48,3.0,10.0,40,0.00,,,0.00,605.000000,,2013-05-14 14:10:00,
2013-05-14 10:32:00,50.0,27.0,-100.00,NE,48,3.0,10.0,40,0.00,,,0.00,605.000000,,2013-05-14 14:32:00,
2013-05-14 10:42:00,50.0,27.0,-100.00,NE,48,3.0,10.0,40,0.00,,,0.00,605.000000,,2013-05-14 14:42:00,
2013-05-14 10:53:00,50.0,27.0,-100.00,NE,48,3.0,10.0,40,0.00,,,0.00,605.000000,,2013-05-14 14:53:00,
2013-05-14 11:01:00,50.0,27.0,-100.00,NE,48,3.0,10.0,40,0.00,,,0.00,605.000000,,2013-05-14 15:01:00,
2013-05-14 11:10:00,55.0,29.0,-100.00,NNW,343,3.0,11.0,36,0.00,,,0.00,723.000000,,2013-05-14 15:10:00,
2013-05-14 11:33:00,55.0,29.0,-100.00,NNW,343,3.0,11.0,36,0.00,,,0.00,723.000000,,2013-05-14 15:33:00,
2013-05-14 12:10:00,55.0,26.0,-100.00,NNW,339,3.0,10.0,33,0.00,,,0.00,824.000000,,2013-05-14 16:10:00,
2013-05-14 12:33:00,55.0,26.0,-100.00,NNW,339,3.0,10.0,33,0.00,,,0.00,824.000000,,2013-05-14 16:33:00,
2013-05-14 12:44:00,55.0,26.0,-100.00,NNW,339,3.0,10.0,33,0.00,,,0.00,824.000000,,2013-05-14 16:44:00,
2013-05-14 12:54:00,55.0,26.0,-100.00,NNW,339,3.0,10.0,33,0.00,,,0.00,824.000000,,2013-05-14 16:54:00,
2013-05-14 13:03:00,55.0,26.0,-100.00,NNW,339,3.0,10.0,33,0.00,,,0.00,824.000000,,2013-05-14 17:03:00,
2013-05-14 13:10:00,58.0,28.0,-100.00,West,278,3.0,12.0,31,0.00,,,0.00,896.000000,,2013-05-14 17:10:00,
2013-05-14 13:43:00,58.0,28.0,-100.00,West,278,3.0,12.0,31,0.00,,,0.00,896.000000,,2013-05-14 17:43:00,
2013-05-14 13:52:00,58.0,28.0,-100.00,West,278,3.0,12.0,31,0.00,,,0.00,896.000000,,2013-05-14 17:52:00,
2013-05-14 14:02:00,58.0,28.0,-100.00,West,278,3.0,12.0,31,0.00,,,0.00,896.000000,,2013-05-14 18:02:00,
2013-05-14 14:10:00,56.0,27.0,-100.00,WNW,291,3.0,14.0,32,0.00,,,-99.99,560.000000,,2013-05-14 18:10:00,
2013-05-14 14:42:00,56.0,27.0,-100.00,WNW,291,3.0,14.0,32,0.00,,,-99.99,560.000000,,2013-05-14 18:42:00,
2013-05-14 14:52:00,56.0,27.0,-100.00,WNW,291,3.0,14.0,32,0.00,,,-99.99,560.000000,,2013-05-14 18:52:00,
2013-05-14 15:02:00,56.0,27.0,-100.00,WNW,291,3.0,14.0,32,0.00,,,-99.99,560.000000,,2013-05-14 19:02:00,
2013-05-14 15:10:00,58.0,28.0,-100.00,West,277,3.0,10.0,32,0.00,,,0.00,564.000000,,2013-05-14 19:10:00,
2013-05-14 15:42:00,58.0,28.0,-100.00,West,277,3.0,10.0,32,0.00,,,0.00,564.000000,,2013-05-14 19:42:00,
2013-05-14 15:53:00,58.0,28.0,-100.00,West,277,3.0,10.0,32,0.00,,,0.00,564.000000,,2013-05-14 19:53:00,
2013-05-14 16:02:00,58.0,28.0,-100.00,West,277,3.0,10.0,32,0.00,,,0.00,564.000000,,2013-05-14 20:02:00,
2013-05-14 16:10:00,57.0,27.0,-100.00,West,277,4.0,8.0,32,0.00,,,0.00,478.000000,,2013-05-14 20:10:00,
2013-05-14 16:44:00,57.0,27.0,-100.00,West,277,4.0,8.0,32,0.00,,,0.00,478.000000,,2013-05-14 20:44:00,
2013-05-14 16:52:00,57.0,27.0,-100.00,West,277,4.0,8.0,32,0.00,,,0.00,478.000000,,2013-05-14 20:52:00,
2013-05-14 17:03:00,57.0,27.0,-100.00,West,277,4.0,8.0,32,0.00,,,0.00,478.000000,,2013-05-14 21:03:00,
2013-05-14 18:10:00,56.0,27.0,-100.00,WNW,285,3.0,10.0,33,-99.99,,,0.00,231.000000,,2013-05-14 22:10:00,
2013-05-14 18:45:00,56.0,27.0,-100.00,WNW,285,3.0,10.0,33,-99.99,,,0.00,231.000000,,2013-05-14 22:45:00,
2013-05-14 18:55:00,56.0,27.0,-100.00,WNW,285,3.0,10.0,33,-99.99,,,0.00,231.000000,,2013-05-14 22:55:00,
2013-05-14 19:04:00,56.0,27.0,-100.00,WNW,285,3.0,10.0,33,-99.99,,,0.00,231.000000,,2013-05-14 23:04:00,
2013-05-14 19:10:00,50.0,22.0,-100.00,WSW,257,2.0,9.0,33,0.00,,,0.00,93.000000,,2013-05-14 23:10:00,
2013-05-14 19:32:00,50.0,22.0,-100.00,WSW,257,2.0,9.0,33,0.00,,,0.00,93.000000,,2013-05-14 23:32:00,
2013-05-14 19:44:00,50.0,22.0,-100.00,WSW,257,2.0,9.0,33,0.00,,,0.00,93.000000,,2013-05-14 23:44:00,
2013-05-14 19:53:00,50.0,22.0,-100.00,WSW,257,2.0,9.0,33,0.00,,,0.00,93.000000,,2013-05-14 23:53:00,
2013-05-14 20:02:00,50.0,22.0,-100.00,WSW,257,2.0,9.0,33,0.00,,,0.00,93.000000,,2013-05-15 00:02:00,
2013-05-14 21:10:00,42.0,30.0,-100.00,East,98,1.0,2.0,61,-99.99,,,0.00,0.000000,,2013-05-15 01:10:00,
2013-05-14 21:32:00,42.0,30.0,-100.00,East,98,1.0,2.0,61,-99.99,,,0.00,0.000000,,2013-05-15 01:32:00,
2013-05-14 21:42:00,42.0,30.0,-100.00,East,98,1.0,2.0,61,-99.99,,,0.00,0.000000,,2013-05-15 01:42:00,
2013-05-14 21:52:00,42.0,30.0,-100.00,East,98,1.0,2.0,61,-99.99,,,0.00,0.000000,,2013-05-15 01:52:00,
2013-05-14 22:02:00,42.0,30.0,-100.00,East,98,1.0,2.0,61,-99.99,,,0.00,0.000000,,2013-05-15 02:02:00,
2013-05-14 22:10:00,36.0,28.0,-100.00,East,83,1.0,2.0,71,0.00,,,0.00,0.000000,,2013-05-15 02:10:00,
2013-05-14 22:32:00,36.0,28.0,-100.00,East,83,1.0,2.0,71,0.00,,,0.00,0.000000,,2013-05-15 02:32:00,
2013-05-14 22:42:00,36.0,28.0,-100.00,East,83,1.0,2.0,71,0.00,,,0.00,0.000000,,2013-05-15 02:42:00,
2013-05-14 22:52:00,36.0,28.0,-100.00,East,83,1.0,2.0,71,0.00,,,0.00,0.000000,,2013-05-15 02:52:00,
2013-05-14 23:01:00,36.0,28.0,-100.00,East,83,1.0,2.0,71,0.00,,,0.00,0.000000,,2013-05-15 03:01:00,
2013-05-14 23:10:00,33.0,28.0,-100.00,East,87,1.0,3.0,80,0.00,,,0.00,0.000000,,2013-05-15 03:10:00,
2013-05-14 23:44:00,33.0,28.0,-100.00,East,87,1.0,3.0,80,0.00,,,0.00,0.000000,,2013-05-15 03:44:00,
2013-05-14 23:54:00,33.0,28.0,-100.00,East,87,1.0,3.0,80,0.00,,,0.00,0.000000,,2013-05-15 03:54:00,